sensor_id;sensor_type;location;lat;lon;timestamp;temperature;humidity
5848;DHT22;8756;49.29324300;8.70599800;2022-11-06T00:01:34;5.40;99.90
5848;DHT22;8756;49.29324300;8.70599800;2022-11-06T00:04:00;5.40;99.90
5848;DHT22;8756;49.29324300;8.70599800;2022-11-06T00:06:25;5.40;99.90
5848;DHT22;8756;49.29324300;8.70599800;2022-11-06T00:09:11;5.40;99.90
5848;DHT22;8756;49.29324300;8.70599800;2022-11-06T00:11:40;5.40;99.90
5848;DHT22;8756;49.29324300;8.70599800;2022-11-06T00:14:06;5.30;99.90
5848;DHT22;8756;49.29324300;8.70599800;2022-11-06T00:16:33;5.30;99.90
5848;DHT22;8756;49.29324300;8.70599800;2022-11-06T00:19:00;5.30;99.90
5848;DHT22;8756;49.29324300;8.70599800;2022-11-06T00:21:28;5.30;99.90
5848;DHT22;8756;49.29324300;8.70599800;2022-11-06T00:23:56;5.30;99.90
5848;DHT22;8756;49.29324300;8.70599800;2022-11-06T00:26:25;5.30;99.90
5848;DHT22;8756;49.29324300;8.70599800;2022-11-06T00:28:52;5.30;99.90
5848;DHT22;8756;49.29324300;8.70599800;2022-11-06T00:31:21;5.30;99.90
5848;DHT22;8756;49.29324300;8.70599800;2022-11-06T00:33:49;5.30;99.90
5848;DHT22;8756;49.29324300;8.70599800;2022-11-06T00:36:17;5.30;99.90
5848;DHT22;8756;49.29324300;8.70599800;2022-11-06T00:38:44;5.30;99.90
5848;DHT22;8756;49.29324300;8.70599800;2022-11-06T00:41:13;5.30;99.90
5848;DHT22;8756;49.29324300;8.70599800;2022-11-06T00:43:40;5.30;99.90
5848;DHT22;8756;49.29324300;8.70599800;2022-11-06T00:46:10;5.30;99.90
5848;DHT22;8756;49.29324300;8.70599800;2022-11-06T00:48:37;5.20;99.90
5848;DHT22;8756;49.29324300;8.70599800;2022-11-06T00:51:07;5.20;99.90
5848;DHT22;8756;49.29324300;8.70599800;2022-11-06T00:53:34;5.20;99.90
5848;DHT22;8756;49.29324300;8.70599800;2022-11-06T00:56:12;5.10;99.90
5848;DHT22;8756;49.29324300;8.70599800;2022-11-06T00:58:41;5.20;99.90
5848;DHT22;8756;49.29324300;8.70599800;2022-11-06T01:01:13;5.10;99.90
5848;DHT22;8756;49.29324300;8.70599800;2022-11-06T01:03:46;5.00;99.90
5848;DHT22;8756;49.29324300;8.70599800;2022-11-06T01:06:21;5.00;99.90
5848;DHT22;8756;49.29324300;8.70599800;2022-11-06T01:08:49;5.00;99.90
5848;DHT22;8756;49.29324300;8.70599800;2022-11-06T01:11:37;5.00;99.90
5848;DHT22;8756;49.29324300;8.70599800;2022-11-06T01:14:07;5.00;99.90
5848;DHT22;8756;49.29324300;8.70599800;2022-11-06T01:16:34;4.90;99.90
5848;DHT22;8756;49.29324300;8.70599800;2022-11-06T01:19:00;4.90;99.90
5848;DHT22;8756;49.29324300;8.70599800;2022-11-06T01:21:35;4.90;99.90
5848;DHT22;8756;49.29324300;8.70599800;2022-11-06T01:24:10;5.00;99.90
5848;DHT22;8756;49.29324300;8.70599800;2022-11-06T01:26:37;4.90;99.90
5848;DHT22;8756;49.29324300;8.70599800;2022-11-06T01:29:07;4.90;99.90
5848;DHT22;8756;49.29324300;8.70599800;2022-11-06T01:31:35;4.90;99.90
5848;DHT22;8756;49.29324300;8.70599800;2022-11-06T01:34:02;4.90;99.90
5848;DHT22;8756;49.29324300;8.70599800;2022-11-06T01:36:29;4.90;99.90
5848;DHT22;8756;49.29324300;8.70599800;2022-11-06T01:38:58;4.80;99.90
5848;DHT22;8756;49.29324300;8.70599800;2022-11-06T01:41:28;4.80;99.90
5848;DHT22;8756;49.29324300;8.70599800;2022-11-06T01:44:00;4.80;99.90
5848;DHT22;8756;49.29324300;8.70599800;2022-11-06T01:46:35;4.70;99.90
5848;DHT22;8756;49.29324300;8.70599800;2022-11-06T01:49:07;4.60;99.90
5848;DHT22;8756;49.29324300;8.70599800;2022-11-06T01:51:45;4.60;99.90
5848;DHT22;8756;49.29324300;8.70599800;2022-11-06T01:54:14;4.50;99.90
5848;DHT22;8756;49.29324300;8.70599800;2022-11-06T01:56:41;4.50;99.90
5848;DHT22;8756;49.29324300;8.70599800;2022-11-06T01:59:12;4.40;99.90
5848;DHT22;8756;49.29324300;8.70599800;2022-11-06T02:01:39;4.40;99.90
5848;DHT22;8756;49.29324300;8.70599800;2022-11-06T02:04:26;4.40;99.90
5848;DHT22;8756;49.29324300;8.70599800;2022-11-06T02:06:55;4.40;99.90
5848;DHT22;8756;49.29324300;8.70599800;2022-11-06T02:09:22;4.40;99.90
5848;DHT22;8756;49.29324300;8.70599800;2022-11-06T02:12:03;4.40;99.90
5848;DHT22;8756;49.29324300;8.70599800;2022-11-06T02:14:46;4.30;99.90
5848;DHT22;8756;49.29324300;8.70599800;2022-11-06T02:26:27;4.10;99.90
5848;DHT22;8756;49.29324300;8.70599800;2022-11-06T02:29:04;4.10;99.90
5848;DHT22;8756;49.29324300;8.70599800;2022-11-06T02:31:34;4.10;99.90
5848;DHT22;8756;49.29324300;8.70599800;2022-11-06T02:34:04;4.10;99.90
5848;DHT22;8756;49.29324300;8.70599800;2022-11-06T02:36:42;4.10;99.90
5848;DHT22;8756;49.29324300;8.70599800;2022-11-06T02:39:16;4.20;99.90
5848;DHT22;8756;49.29324300;8.70599800;2022-11-06T02:41:45;4.20;99.90
5848;DHT22;8756;49.29324300;8.70599800;2022-11-06T02:44:16;4.20;99.90
5848;DHT22;8756;49.29324300;8.70599800;2022-11-06T02:46:49;4.20;99.90
5848;DHT22;8756;49.29324300;8.70599800;2022-11-06T02:52:09;4.30;99.90
5848;DHT22;8756;49.29324300;8.70599800;2022-11-06T02:54:38;4.30;99.90
5848;DHT22;8756;49.29324300;8.70599800;2022-11-06T02:57:09;4.30;99.90
5848;DHT22;8756;49.29324300;8.70599800;2022-11-06T02:59:46;4.30;99.90
5848;DHT22;8756;49.29324300;8.70599800;2022-11-06T03:02:49;4.30;99.90
5848;DHT22;8756;49.29324300;8.70599800;2022-11-06T03:05:35;4.20;99.90
5848;DHT22;8756;49.29324300;8.70599800;2022-11-06T03:08:29;4.20;99.90
5848;DHT22;8756;49.29324300;8.70599800;2022-11-06T03:11:20;4.20;99.90
5848;DHT22;8756;49.29324300;8.70599800;2022-11-06T03:19:28;4.10;99.90
5848;DHT22;8756;49.29324300;8.70599800;2022-11-06T03:28:08;3.90;99.90
5848;DHT22;8756;49.29324300;8.70599800;2022-11-06T03:30:41;3.90;99.90
5848;DHT22;8756;49.29324300;8.70599800;2022-11-06T03:33:30;3.90;99.90
5848;DHT22;8756;49.29324300;8.70599800;2022-11-06T03:36:16;3.90;99.90
5848;DHT22;8756;49.29324300;8.70599800;2022-11-06T03:38:49;3.90;99.90
5848;DHT22;8756;49.29324300;8.70599800;2022-11-06T03:44:23;3.90;99.90
5848;DHT22;8756;49.29324300;8.70599800;2022-11-06T03:47:00;3.90;99.90
5848;DHT22;8756;49.29324300;8.70599800;2022-11-06T03:49:36;3.90;99.90
5848;DHT22;8756;49.29324300;8.70599800;2022-11-06T03:52:13;3.90;99.90
5848;DHT22;8756;49.29324300;8.70599800;2022-11-06T03:54:54;3.90;99.90
5848;DHT22;8756;49.29324300;8.70599800;2022-11-06T03:57:40;3.90;99.90
5848;DHT22;8756;49.29324300;8.70599800;2022-11-06T04:00:09;3.80;99.90
5848;DHT22;8756;49.29324300;8.70599800;2022-11-06T04:02:38;3.90;99.90
5848;DHT22;8756;49.29324300;8.70599800;2022-11-06T04:05:20;3.80;99.90
5848;DHT22;8756;49.29324300;8.70599800;2022-11-06T04:07:51;3.80;99.90
5848;DHT22;8756;49.29324300;8.70599800;2022-11-06T04:10:39;3.80;99.90
5848;DHT22;8756;49.29324300;8.70599800;2022-11-06T04:13:28;3.80;99.90
5848;DHT22;8756;49.29324300;8.70599800;2022-11-06T04:16:14;3.80;99.90
5848;DHT22;8756;49.29324300;8.70599800;2022-11-06T04:18:41;3.80;99.90
5848;DHT22;8756;49.29324300;8.70599800;2022-11-06T04:21:36;3.80;99.90
5848;DHT22;8756;49.29324300;8.70599800;2022-11-06T04:24:33;3.80;99.90
5848;DHT22;8756;49.29324300;8.70599800;2022-11-06T04:30:17;3.70;99.90
5848;DHT22;8756;49.29324300;8.70599800;2022-11-06T04:33:10;3.80;99.90
5848;DHT22;8756;49.29324300;8.70599800;2022-11-06T04:36:01;3.80;99.90
5848;DHT22;8756;49.29324300;8.70599800;2022-11-06T04:47:05;3.90;99.90
5848;DHT22;8756;49.29324300;8.70599800;2022-11-06T04:49:34;3.90;99.90
5848;DHT22;8756;49.29324300;8.70599800;2022-11-06T04:52:03;4.00;99.90
5848;DHT22;8756;49.29324300;8.70599800;2022-11-06T04:54:31;4.00;99.90
5848;DHT22;8756;49.29324300;8.70599800;2022-11-06T04:57:00;4.00;99.90
5848;DHT22;8756;49.29324300;8.70599800;2022-11-06T04:59:27;4.10;99.90
5848;DHT22;8756;49.29324300;8.70599800;2022-11-06T05:01:55;4.10;99.90
5848;DHT22;8756;49.29324300;8.70599800;2022-11-06T05:04:21;4.10;99.90
5848;DHT22;8756;49.29324300;8.70599800;2022-11-06T05:06:47;4.20;99.90
5848;DHT22;8756;49.29324300;8.70599800;2022-11-06T05:09:12;4.20;99.90
5848;DHT22;8756;49.29324300;8.70599800;2022-11-06T05:11:38;4.20;99.90
5848;DHT22;8756;49.29324300;8.70599800;2022-11-06T05:14:04;4.20;99.90
5848;DHT22;8756;49.29324300;8.70599800;2022-11-06T05:16:29;4.20;99.90
5848;DHT22;8756;49.29324300;8.70599800;2022-11-06T05:18:55;4.20;99.90
5848;DHT22;8756;49.29324300;8.70599800;2022-11-06T05:21:21;4.20;99.90
5848;DHT22;8756;49.29324300;8.70599800;2022-11-06T05:24:06;4.30;99.90
5848;DHT22;8756;49.29324300;8.70599800;2022-11-06T05:26:32;4.20;99.90
5848;DHT22;8756;49.29324300;8.70599800;2022-11-06T05:28:57;4.20;99.90
5848;DHT22;8756;49.29324300;8.70599800;2022-11-06T05:31:24;4.20;99.90
5848;DHT22;8756;49.29324300;8.70599800;2022-11-06T05:33:50;4.20;99.90
5848;DHT22;8756;49.29324300;8.70599800;2022-11-06T05:36:16;4.20;99.90
5848;DHT22;8756;49.29324300;8.70599800;2022-11-06T05:38:41;4.20;99.90
5848;DHT22;8756;49.29324300;8.70599800;2022-11-06T05:41:07;4.20;99.90
5848;DHT22;8756;49.29324300;8.70599800;2022-11-06T05:43:33;4.20;99.90
5848;DHT22;8756;49.29324300;8.70599800;2022-11-06T05:46:01;4.20;99.90
5848;DHT22;8756;49.29324300;8.70599800;2022-11-06T05:48:28;4.20;99.90
5848;DHT22;8756;49.29324300;8.70599800;2022-11-06T05:51:02;4.20;99.90
5848;DHT22;8756;49.29324300;8.70599800;2022-11-06T05:53:30;4.30;99.90
5848;DHT22;8756;49.29324300;8.70599800;2022-11-06T05:55:57;4.30;99.90
5848;DHT22;8756;49.29324300;8.70599800;2022-11-06T05:58:25;4.30;99.90
5848;DHT22;8756;49.29324300;8.70599800;2022-11-06T06:00:52;4.30;99.90
5848;DHT22;8756;49.29324300;8.70599800;2022-11-06T06:03:18;4.30;99.90
5848;DHT22;8756;49.29324300;8.70599800;2022-11-06T06:05:46;4.30;99.90
5848;DHT22;8756;49.29324300;8.70599800;2022-11-06T06:08:12;4.30;99.90
5848;DHT22;8756;49.29324300;8.70599800;2022-11-06T06:10:45;4.30;99.90
5848;DHT22;8756;49.29324300;8.70599800;2022-11-06T06:13:13;4.30;99.90
5848;DHT22;8756;49.29324300;8.70599800;2022-11-06T06:15:40;4.30;99.90
5848;DHT22;8756;49.29324300;8.70599800;2022-11-06T06:18:07;4.30;99.90
5848;DHT22;8756;49.29324300;8.70599800;2022-11-06T06:20:33;4.40;99.90
5848;DHT22;8756;49.29324300;8.70599800;2022-11-06T06:23:00;4.40;99.90
5848;DHT22;8756;49.29324300;8.70599800;2022-11-06T06:25:27;4.40;99.90
5848;DHT22;8756;49.29324300;8.70599800;2022-11-06T06:27:56;4.40;99.90
5848;DHT22;8756;49.29324300;8.70599800;2022-11-06T06:30:23;4.40;99.90
5848;DHT22;8756;49.29324300;8.70599800;2022-11-06T06:32:50;4.40;99.90
5848;DHT22;8756;49.29324300;8.70599800;2022-11-06T06:35:16;4.40;99.90
5848;DHT22;8756;49.29324300;8.70599800;2022-11-06T06:37:53;4.40;99.90
5848;DHT22;8756;49.29324300;8.70599800;2022-11-06T06:40:20;4.40;99.90
5848;DHT22;8756;49.29324300;8.70599800;2022-11-06T06:42:46;4.40;99.90
5848;DHT22;8756;49.29324300;8.70599800;2022-11-06T06:45:12;4.40;99.90
5848;DHT22;8756;49.29324300;8.70599800;2022-11-06T06:47:37;4.40;99.90
5848;DHT22;8756;49.29324300;8.70599800;2022-11-06T06:50:03;4.40;99.90
5848;DHT22;8756;49.29324300;8.70599800;2022-11-06T06:52:29;4.40;99.90
5848;DHT22;8756;49.29324300;8.70599800;2022-11-06T06:54:55;4.30;99.90
5848;DHT22;8756;49.29324300;8.70599800;2022-11-06T06:57:20;4.30;99.90
5848;DHT22;8756;49.29324300;8.70599800;2022-11-06T06:59:46;4.30;99.90
5848;DHT22;8756;49.29324300;8.70599800;2022-11-06T07:02:12;4.30;99.90
5848;DHT22;8756;49.29324300;8.70599800;2022-11-06T07:04:37;4.30;99.90
5848;DHT22;8756;49.29324300;8.70599800;2022-11-06T07:07:04;4.30;99.90
5848;DHT22;8756;49.29324300;8.70599800;2022-11-06T07:09:30;4.40;99.90
5848;DHT22;8756;49.29324300;8.70599800;2022-11-06T07:11:56;4.40;99.90
5848;DHT22;8756;49.29324300;8.70599800;2022-11-06T07:14:22;4.40;99.90
5848;DHT22;8756;49.29324300;8.70599800;2022-11-06T07:16:48;4.40;99.90
5848;DHT22;8756;49.29324300;8.70599800;2022-11-06T07:19:14;4.40;99.90
5848;DHT22;8756;49.29324300;8.70599800;2022-11-06T07:21:40;4.40;99.90
5848;DHT22;8756;49.29324300;8.70599800;2022-11-06T07:24:05;4.40;99.90
5848;DHT22;8756;49.29324300;8.70599800;2022-11-06T07:26:31;4.50;99.90
5848;DHT22;8756;49.29324300;8.70599800;2022-11-06T07:28:57;4.50;99.90
5848;DHT22;8756;49.29324300;8.70599800;2022-11-06T07:31:23;4.50;99.90
5848;DHT22;8756;49.29324300;8.70599800;2022-11-06T07:33:49;4.50;99.90
5848;DHT22;8756;49.29324300;8.70599800;2022-11-06T07:36:14;4.50;99.90
5848;DHT22;8756;49.29324300;8.70599800;2022-11-06T07:38:41;4.50;99.90
5848;DHT22;8756;49.29324300;8.70599800;2022-11-06T07:41:10;4.50;99.90
5848;DHT22;8756;49.29324300;8.70599800;2022-11-06T07:43:37;4.50;99.90
5848;DHT22;8756;49.29324300;8.70599800;2022-11-06T07:46:06;4.50;99.90
5848;DHT22;8756;49.29324300;8.70599800;2022-11-06T07:48:33;4.50;99.90
5848;DHT22;8756;49.29324300;8.70599800;2022-11-06T07:51:02;4.50;99.90
5848;DHT22;8756;49.29324300;8.70599800;2022-11-06T07:53:29;4.50;99.90
5848;DHT22;8756;49.29324300;8.70599800;2022-11-06T07:55:55;4.50;99.90
5848;DHT22;8756;49.29324300;8.70599800;2022-11-06T07:58:22;4.50;99.90
5848;DHT22;8756;49.29324300;8.70599800;2022-11-06T08:00:52;4.60;99.90
5848;DHT22;8756;49.29324300;8.70599800;2022-11-06T08:03:23;4.60;99.90
5848;DHT22;8756;49.29324300;8.70599800;2022-11-06T08:05:49;4.70;99.90
5848;DHT22;8756;49.29324300;8.70599800;2022-11-06T08:08:16;4.70;99.90
5848;DHT22;8756;49.29324300;8.70599800;2022-11-06T08:10:42;4.80;99.90
5848;DHT22;8756;49.29324300;8.70599800;2022-11-06T08:13:13;4.80;99.90
5848;DHT22;8756;49.29324300;8.70599800;2022-11-06T08:15:41;4.90;99.90
5848;DHT22;8756;49.29324300;8.70599800;2022-11-06T08:18:07;5.00;99.90
5848;DHT22;8756;49.29324300;8.70599800;2022-11-06T08:20:35;5.10;99.90
5848;DHT22;8756;49.29324300;8.70599800;2022-11-06T08:23:03;5.10;99.90
5848;DHT22;8756;49.29324300;8.70599800;2022-11-06T08:25:30;5.10;99.90
5848;DHT22;8756;49.29324300;8.70599800;2022-11-06T08:27:57;5.20;99.90
5848;DHT22;8756;49.29324300;8.70599800;2022-11-06T08:30:25;5.30;99.90
5848;DHT22;8756;49.29324300;8.70599800;2022-11-06T08:32:52;5.30;99.90
5848;DHT22;8756;49.29324300;8.70599800;2022-11-06T08:35:18;5.30;99.90
5848;DHT22;8756;49.29324300;8.70599800;2022-11-06T08:37:44;5.40;99.90
5848;DHT22;8756;49.29324300;8.70599800;2022-11-06T08:40:10;5.40;99.90
5848;DHT22;8756;49.29324300;8.70599800;2022-11-06T08:42:36;5.60;99.90
5848;DHT22;8756;49.29324300;8.70599800;2022-11-06T08:45:02;5.60;99.90
5848;DHT22;8756;49.29324300;8.70599800;2022-11-06T08:47:28;5.60;99.90
5848;DHT22;8756;49.29324300;8.70599800;2022-11-06T08:49:54;5.70;99.90
5848;DHT22;8756;49.29324300;8.70599800;2022-11-06T08:52:20;5.70;99.90
5848;DHT22;8756;49.29324300;8.70599800;2022-11-06T08:54:46;5.80;99.90
5848;DHT22;8756;49.29324300;8.70599800;2022-11-06T08:57:12;5.90;99.90
5848;DHT22;8756;49.29324300;8.70599800;2022-11-06T08:59:40;5.90;99.90
5848;DHT22;8756;49.29324300;8.70599800;2022-11-06T09:02:11;6.00;99.90
5848;DHT22;8756;49.29324300;8.70599800;2022-11-06T09:04:37;6.00;99.90
5848;DHT22;8756;49.29324300;8.70599800;2022-11-06T09:07:03;6.10;99.90
5848;DHT22;8756;49.29324300;8.70599800;2022-11-06T09:09:29;6.10;99.90
5848;DHT22;8756;49.29324300;8.70599800;2022-11-06T09:11:58;6.20;99.90
5848;DHT22;8756;49.29324300;8.70599800;2022-11-06T09:14:25;6.20;99.90
5848;DHT22;8756;49.29324300;8.70599800;2022-11-06T09:16:51;6.30;99.90
5848;DHT22;8756;49.29324300;8.70599800;2022-11-06T09:19:17;6.30;99.90
5848;DHT22;8756;49.29324300;8.70599800;2022-11-06T09:21:42;6.40;99.90
5848;DHT22;8756;49.29324300;8.70599800;2022-11-06T09:24:08;6.40;99.90
5848;DHT22;8756;49.29324300;8.70599800;2022-11-06T09:26:34;6.50;99.90
5848;DHT22;8756;49.29324300;8.70599800;2022-11-06T09:29:00;6.60;99.90
5848;DHT22;8756;49.29324300;8.70599800;2022-11-06T09:31:26;6.70;99.90
5848;DHT22;8756;49.29324300;8.70599800;2022-11-06T09:33:52;6.70;99.90
5848;DHT22;8756;49.29324300;8.70599800;2022-11-06T09:36:19;6.80;99.90
5848;DHT22;8756;49.29324300;8.70599800;2022-11-06T09:38:45;6.80;99.90
5848;DHT22;8756;49.29324300;8.70599800;2022-11-06T09:41:35;6.90;99.90
5848;DHT22;8756;49.29324300;8.70599800;2022-11-06T09:44:42;7.00;99.90
5848;DHT22;8756;49.29324300;8.70599800;2022-11-06T09:47:19;7.10;99.90
5848;DHT22;8756;49.29324300;8.70599800;2022-11-06T09:49:52;7.20;99.90
5848;DHT22;8756;49.29324300;8.70599800;2022-11-06T09:55:02;7.30;99.90
5848;DHT22;8756;49.29324300;8.70599800;2022-11-06T09:57:51;7.40;99.90
5848;DHT22;8756;49.29324300;8.70599800;2022-11-06T10:00:20;7.50;99.90
5848;DHT22;8756;49.29324300;8.70599800;2022-11-06T10:02:49;7.50;99.90
5848;DHT22;8756;49.29324300;8.70599800;2022-11-06T10:05:27;7.60;99.90
5848;DHT22;8756;49.29324300;8.70599800;2022-11-06T10:07:58;7.70;99.90
5848;DHT22;8756;49.29324300;8.70599800;2022-11-06T10:10:35;7.80;99.90
5848;DHT22;8756;49.29324300;8.70599800;2022-11-06T10:13:17;7.80;99.90
5848;DHT22;8756;49.29324300;8.70599800;2022-11-06T10:16:09;7.90;99.90
5848;DHT22;8756;49.29324300;8.70599800;2022-11-06T10:24:21;8.20;99.90
5848;DHT22;8756;49.29324300;8.70599800;2022-11-06T10:27:22;8.20;99.90
5848;DHT22;8756;49.29324300;8.70599800;2022-11-06T10:30:06;8.40;99.90
5848;DHT22;8756;49.29324300;8.70599800;2022-11-06T10:36:29;8.40;99.90
5848;DHT22;8756;49.29324300;8.70599800;2022-11-06T10:39:03;8.50;99.90
5848;DHT22;8756;49.29324300;8.70599800;2022-11-06T10:41:34;8.60;99.90
5848;DHT22;8756;49.29324300;8.70599800;2022-11-06T10:44:09;8.70;99.90
5848;DHT22;8756;49.29324300;8.70599800;2022-11-06T10:47:11;8.70;99.90
5848;DHT22;8756;49.29324300;8.70599800;2022-11-06T10:53:16;8.80;99.90
5848;DHT22;8756;49.29324300;8.70599800;2022-11-06T10:56:05;8.90;99.90
5848;DHT22;8756;49.29324300;8.70599800;2022-11-06T10:58:53;9.00;99.90
5848;DHT22;8756;49.29324300;8.70599800;2022-11-06T11:01:19;9.00;99.90
5848;DHT22;8756;49.29324300;8.70599800;2022-11-06T11:03:46;9.00;99.90
5848;DHT22;8756;49.29324300;8.70599800;2022-11-06T11:06:12;9.10;99.90
5848;DHT22;8756;49.29324300;8.70599800;2022-11-06T11:08:43;9.10;99.90
5848;DHT22;8756;49.29324300;8.70599800;2022-11-06T11:13:45;9.20;99.90
5848;DHT22;8756;49.29324300;8.70599800;2022-11-06T11:16:18;9.30;99.90
5848;DHT22;8756;49.29324300;8.70599800;2022-11-06T11:18:48;9.30;99.90
5848;DHT22;8756;49.29324300;8.70599800;2022-11-06T11:23:44;9.50;99.90
5848;DHT22;8756;49.29324300;8.70599800;2022-11-06T11:26:21;9.50;99.90
5848;DHT22;8756;49.29324300;8.70599800;2022-11-06T11:28:51;9.60;99.90
5848;DHT22;8756;49.29324300;8.70599800;2022-11-06T11:31:18;9.70;99.90
5848;DHT22;8756;49.29324300;8.70599800;2022-11-06T11:33:50;9.70;99.90
5848;DHT22;8756;49.29324300;8.70599800;2022-11-06T11:36:18;9.80;99.90
5848;DHT22;8756;49.29324300;8.70599800;2022-11-06T11:38:44;9.80;99.90
5848;DHT22;8756;49.29324300;8.70599800;2022-11-06T11:41:21;9.90;99.90
5848;DHT22;8756;49.29324300;8.70599800;2022-11-06T11:43:57;10.00;99.90
5848;DHT22;8756;49.29324300;8.70599800;2022-11-06T11:46:28;10.00;99.90
5848;DHT22;8756;49.29324300;8.70599800;2022-11-06T11:48:58;10.10;99.90
5848;DHT22;8756;49.29324300;8.70599800;2022-11-06T11:56:28;10.10;99.90
5848;DHT22;8756;49.29324300;8.70599800;2022-11-06T11:58:57;10.20;99.90
5848;DHT22;8756;49.29324300;8.70599800;2022-11-06T12:01:34;10.20;99.90
5848;DHT22;8756;49.29324300;8.70599800;2022-11-06T12:04:20;10.20;99.90
5848;DHT22;8756;49.29324300;8.70599800;2022-11-06T12:07:00;10.20;99.90
5848;DHT22;8756;49.29324300;8.70599800;2022-11-06T12:09:28;10.20;99.90
5848;DHT22;8756;49.29324300;8.70599800;2022-11-06T12:11:59;10.20;99.90
5848;DHT22;8756;49.29324300;8.70599800;2022-11-06T12:14:33;10.30;99.90
5848;DHT22;8756;49.29324300;8.70599800;2022-11-06T12:17:05;10.30;99.90
5848;DHT22;8756;49.29324300;8.70599800;2022-11-06T12:19:36;10.30;99.90
5848;DHT22;8756;49.29324300;8.70599800;2022-11-06T12:22:25;10.30;99.90
5848;DHT22;8756;49.29324300;8.70599800;2022-11-06T12:25:11;10.30;99.90
5848;DHT22;8756;49.29324300;8.70599800;2022-11-06T12:27:43;10.20;99.90
5848;DHT22;8756;49.29324300;8.70599800;2022-11-06T12:30:14;10.20;99.90
5848;DHT22;8756;49.29324300;8.70599800;2022-11-06T12:36:09;10.20;99.90
5848;DHT22;8756;49.29324300;8.70599800;2022-11-06T12:38:59;10.20;99.90
5848;DHT22;8756;49.29324300;8.70599800;2022-11-06T12:41:36;10.20;99.90
5848;DHT22;8756;49.29324300;8.70599800;2022-11-06T12:44:08;10.20;99.90
5848;DHT22;8756;49.29324300;8.70599800;2022-11-06T13:10:07;10.30;99.90
5848;DHT22;8756;49.29324300;8.70599800;2022-11-06T13:15:57;10.30;99.90
5848;DHT22;8756;49.29324300;8.70599800;2022-11-06T13:18:39;10.20;99.90
5848;DHT22;8756;49.29324300;8.70599800;2022-11-06T13:23:49;10.30;99.90
5848;DHT22;8756;49.29324300;8.70599800;2022-11-06T13:26:19;10.30;99.90
5848;DHT22;8756;49.29324300;8.70599800;2022-11-06T13:29:28;10.30;99.90
5848;DHT22;8756;49.29324300;8.70599800;2022-11-06T13:32:00;10.30;99.90
5848;DHT22;8756;49.29324300;8.70599800;2022-11-06T13:34:36;10.30;99.90
5848;DHT22;8756;49.29324300;8.70599800;2022-11-06T13:37:10;10.30;99.90
5848;DHT22;8756;49.29324300;8.70599800;2022-11-06T13:40:00;10.30;99.90
5848;DHT22;8756;49.29324300;8.70599800;2022-11-06T13:42:38;10.30;99.90
5848;DHT22;8756;49.29324300;8.70599800;2022-11-06T13:45:10;10.30;99.90
5848;DHT22;8756;49.29324300;8.70599800;2022-11-06T13:48:04;10.30;99.90
5848;DHT22;8756;49.29324300;8.70599800;2022-11-06T13:50:53;10.40;99.90
5848;DHT22;8756;49.29324300;8.70599800;2022-11-06T13:53:37;10.30;99.90
5848;DHT22;8756;49.29324300;8.70599800;2022-11-06T13:56:32;10.40;99.90
5848;DHT22;8756;49.29324300;8.70599800;2022-11-06T13:59:54;10.40;99.90
5848;DHT22;8756;49.29324300;8.70599800;2022-11-06T14:06:02;10.40;99.90
5848;DHT22;8756;49.29324300;8.70599800;2022-11-06T14:08:52;10.40;99.90
5848;DHT22;8756;49.29324300;8.70599800;2022-11-06T14:11:31;10.40;99.90
5848;DHT22;8756;49.29324300;8.70599800;2022-11-06T14:22:33;10.40;99.90
5848;DHT22;8756;49.29324300;8.70599800;2022-11-06T14:30:38;10.40;99.90
5848;DHT22;8756;49.29324300;8.70599800;2022-11-06T14:33:55;10.40;99.90
5848;DHT22;8756;49.29324300;8.70599800;2022-11-06T14:38:48;10.40;99.90
5848;DHT22;8756;49.29324300;8.70599800;2022-11-06T14:44:04;10.40;99.90
5848;DHT22;8756;49.29324300;8.70599800;2022-11-06T14:46:38;10.40;99.90
5848;DHT22;8756;49.29324300;8.70599800;2022-11-06T14:49:19;10.40;99.90
5848;DHT22;8756;49.29324300;8.70599800;2022-11-06T14:51:57;10.40;99.90
5848;DHT22;8756;49.29324300;8.70599800;2022-11-06T14:54:24;10.40;99.90
5848;DHT22;8756;49.29324300;8.70599800;2022-11-06T14:56:54;10.40;99.90
5848;DHT22;8756;49.29324300;8.70599800;2022-11-06T14:59:35;10.40;99.90
5848;DHT22;8756;49.29324300;8.70599800;2022-11-06T15:02:19;10.40;99.90
5848;DHT22;8756;49.29324300;8.70599800;2022-11-06T15:04:59;10.40;99.90
5848;DHT22;8756;49.29324300;8.70599800;2022-11-06T15:13:23;10.30;99.90
5848;DHT22;8756;49.29324300;8.70599800;2022-11-06T15:16:11;10.30;99.90
5848;DHT22;8756;49.29324300;8.70599800;2022-11-06T15:18:37;10.30;99.90
5848;DHT22;8756;49.29324300;8.70599800;2022-11-06T15:21:08;10.20;99.90
5848;DHT22;8756;49.29324300;8.70599800;2022-11-06T15:23:51;10.20;99.90
5848;DHT22;8756;49.29324300;8.70599800;2022-11-06T15:29:23;10.10;99.90
5848;DHT22;8756;49.29324300;8.70599800;2022-11-06T15:31:59;10.10;99.90
5848;DHT22;8756;49.29324300;8.70599800;2022-11-06T15:34:37;10.20;99.90
5848;DHT22;8756;49.29324300;8.70599800;2022-11-06T15:37:23;10.20;99.90
5848;DHT22;8756;49.29324300;8.70599800;2022-11-06T15:39:55;10.10;99.90
5848;DHT22;8756;49.29324300;8.70599800;2022-11-06T15:42:24;10.10;99.90
5848;DHT22;8756;49.29324300;8.70599800;2022-11-06T15:45:25;10.10;99.90
5848;DHT22;8756;49.29324300;8.70599800;2022-11-06T15:48:14;10.10;99.90
5848;DHT22;8756;49.29324300;8.70599800;2022-11-06T15:50:43;10.00;99.90
5848;DHT22;8756;49.29324300;8.70599800;2022-11-06T15:53:23;10.00;99.90
5848;DHT22;8756;49.29324300;8.70599800;2022-11-06T15:56:01;9.90;99.90
5848;DHT22;8756;49.29324300;8.70599800;2022-11-06T15:58:38;9.90;99.90
5848;DHT22;8756;49.29324300;8.70599800;2022-11-06T16:01:05;9.90;99.90
5848;DHT22;8756;49.29324300;8.70599800;2022-11-06T16:03:48;9.90;99.90
5848;DHT22;8756;49.29324300;8.70599800;2022-11-06T16:06:15;9.90;99.90
5848;DHT22;8756;49.29324300;8.70599800;2022-11-06T16:08:42;9.90;99.90
5848;DHT22;8756;49.29324300;8.70599800;2022-11-06T16:11:13;9.90;99.90
5848;DHT22;8756;49.29324300;8.70599800;2022-11-06T16:13:40;9.80;99.90
5848;DHT22;8756;49.29324300;8.70599800;2022-11-06T16:19:03;9.80;99.90
5848;DHT22;8756;49.29324300;8.70599800;2022-11-06T16:21:33;9.80;99.90
5848;DHT22;8756;49.29324300;8.70599800;2022-11-06T16:24:10;9.80;99.90
5848;DHT22;8756;49.29324300;8.70599800;2022-11-06T16:26:47;9.80;99.90
5848;DHT22;8756;49.29324300;8.70599800;2022-11-06T16:29:28;9.80;99.90
5848;DHT22;8756;49.29324300;8.70599800;2022-11-06T16:34:37;9.70;99.90
5848;DHT22;8756;49.29324300;8.70599800;2022-11-06T16:37:11;9.80;99.90
5848;DHT22;8756;49.29324300;8.70599800;2022-11-06T16:40:07;9.70;99.90